Bekescsaba, Hungary

2:31 AM CET on December 26, 2014 (GMT +0100)
IBEKESME2 | Change Station
CLOSE
Current Station
Personal Weather Station
Location: Mezobereny, BEKES
Elevation: 279 ft
Nearby Weather Stations

Elev 279 ft 46.83 °N, 21.02 °E | Updated 1 minute ago

Clear
Clear
36.1 °F
Feels Like 36 °F
N
3.0
Wind Variable Wind from WNW
Gusts 5.0 mph

Today
High -- | Low -- °F
--% Chance of Precip.
Yesterday
High -- | Low -- °F
Precip. -- in
7:18 AM 3:52 PM
Waxing Crescent, 21% visible
Pressure 30.12 in
Visibility 6.2 miles
Clouds
Windchill 36 °F
Dew Point 29 °F
Humidity 76%
Rainfall 0.00 in
Snow Depth Not available.
UV Not available.
Pollen Not available.
Air Quality Not available.
Flu Activity Not available.
METAR LRAR 260100Z AUTO 28004KT 9999 R09////// R27/P2000 NCD 02/01 Q1020

More Conditions Fewer Conditions

Pressure 30.12 in
Visibility 6.2 miles
Clouds
Windchill 36 °F
Dew Point 29 °F
Humidity 76%
Rainfall 0.00 in
Snow Depth Not available.
UV Not available.
Pollen Not available.
Air Quality Not available.
Flu Activity Not available.
METAR LRAR 260100Z AUTO 28004KT 9999 R09////// R27/P2000 NCD 02/01 Q1020

More Conditions Fewer Conditions

10-Day Weather Forecast

Almanac

Astronomy

Dec. 26, 2014 Rise Set
Actual Time
Civil Twilight
Nautical Twilight
Astronomical Twilight
Moon
Length of Visible Light
Length of Day
Tomorrow will be .
, % of the Moon is Illuminated

Today's Extremes

Country Highs Country Lows

Community

WunderPhotos

Upload Photos

1,780,495 photos uploaded!

WunderBlogs® & News

Nearby

Air Quality

  Air Quality AQ Index Pollutant
Not available.

Snow Depth

Station Depth Elevation

Earthquake Activity

City Distance Mag. Time & Date
Minimum magnitude displayed is 2.5.

Coastal Water Temperatures

Place Temperature

Nearby Weather Stations